Newton, Kansas
Current Conditions -  °F | °C
As of 9:55 PM on Saturday 24 Jan 2015 (Local Time) from KEWK Reporting Station
Broken Clouds Broken Clouds  
Wind Chill: 45°   Ceiling: 7500
Heat Index: 48°   Visibility: 10mi
Dew Point: 34°   Wind: 7mph
Humidity: 57%   Direction: 280°W
Pressure: 29.82"   Gusts: NA
Location:  38.05°N, 97.34°W
Report Text: KEWK 250355Z AUTO 28006KT 10SM SCT065 BKN075 09/01 A2982 RMK AO1
Loading
Personal Weather Stations






























Interactive Weather Map New forecast layout! Learn more

10-Day Weather Forecast

Advertisements
Track Severe Weather on mobile